createdAt,value
2023-03-23T15:58:35.209Z,16.20
2023-03-23T16:01:08.314Z,17.00
2023-03-23T16:03:41.372Z,17.70
2023-03-23T16:06:23.388Z,16.70
2023-03-23T16:08:55.859Z,17.80
2023-03-23T16:11:27.730Z,17.50
2023-03-23T16:13:57.499Z,16.80
2023-03-23T16:16:29.692Z,18.30
2023-03-23T16:18:59.114Z,16.90
2023-03-23T16:21:35.218Z,18.60
2023-03-23T16:24:07.466Z,17.50
2023-03-23T16:26:39.802Z,17.10
2023-03-23T16:29:28.355Z,18.70
2023-03-23T16:32:04.663Z,19.00
2023-03-23T16:34:35.281Z,17.70
2023-03-23T16:37:06.174Z,18.30
2023-03-23T16:39:35.591Z,20.00
2023-03-23T16:42:04.926Z,20.40
2023-03-23T16:44:34.090Z,19.20
2023-03-23T16:47:03.607Z,17.90
2023-03-23T16:49:32.886Z,20.80
2023-03-23T16:52:02.081Z,20.60
2023-03-23T16:54:32.164Z,20.00
2023-03-23T16:57:01.436Z,20.40
2023-03-23T16:59:31.067Z,20.00
2023-03-23T17:02:02.984Z,20.50
2023-03-23T17:04:33.084Z,22.50
2023-03-23T17:07:09.419Z,22.30
2023-03-23T17:09:46.504Z,23.90
2023-03-23T17:12:17.262Z,23.70
2023-03-23T17:14:46.747Z,23.60
2023-03-23T17:17:16.418Z,23.70
2023-03-23T17:19:47.829Z,22.20
2023-03-23T17:22:16.974Z,22.90
2023-03-23T17:24:47.160Z,21.80
2023-03-23T17:27:19.512Z,21.00
2023-03-23T17:29:49.361Z,21.30
2023-03-23T17:32:20.353Z,21.20
2023-03-23T17:34:52.924Z,21.00
2023-03-23T17:37:23.188Z,21.90
2023-03-23T17:39:52.368Z,22.50
2023-03-23T17:42:21.686Z,21.90
2023-03-23T17:44:51.060Z,20.20
2023-03-23T17:47:20.367Z,20.80
2023-03-23T17:49:49.764Z,20.80
2023-03-23T17:52:19.541Z,21.20
2023-03-23T17:54:48.717Z,21.30
2023-03-23T17:57:18.500Z,21.90
2023-03-23T17:59:48.097Z,22.30
2023-03-23T18:02:19.180Z,21.80
2023-03-23T18:04:48.835Z,23.00
2023-03-23T18:07:23.942Z,22.50
2023-03-23T18:09:53.200Z,23.10
2023-03-23T18:12:22.519Z,23.40
2023-03-23T18:14:55.702Z,23.70
2023-03-23T18:17:26.044Z,24.90
2023-03-23T18:19:55.341Z,23.70
2023-03-23T18:22:24.972Z,24.70
2023-03-23T18:24:55.144Z,23.50
2023-03-23T18:27:25.750Z,23.90
2023-03-23T18:29:55.475Z,24.90
2023-03-23T18:32:26.942Z,25.00
2023-03-23T18:34:56.613Z,24.30
2023-03-23T18:37:26.150Z,24.20
2023-03-23T18:39:56.098Z,24.80
2023-03-23T18:42:26.231Z,25.60
2023-03-23T18:44:55.609Z,24.70
2023-03-23T18:47:24.776Z,25.50
2023-03-23T18:49:56.653Z,25.50
2023-03-23T18:52:28.285Z,25.10
2023-03-23T18:54:58.206Z,26.10
2023-03-23T18:57:28.043Z,25.80
2023-03-23T18:59:57.500Z,25.90
2023-03-23T19:02:27.195Z,24.60
2023-03-23T19:04:57.015Z,25.00
2023-03-23T19:07:26.241Z,24.90
2023-03-23T19:09:55.456Z,26.10
2023-03-23T19:12:25.231Z,27.00
2023-03-23T19:14:54.653Z,27.40
2023-03-23T19:17:24.643Z,26.70
2023-03-23T19:19:54.789Z,27.00
2023-03-23T19:22:25.492Z,27.30
2023-03-23T19:25:04.854Z,25.90
2023-03-23T19:27:43.560Z,26.10
2023-03-23T19:30:24.442Z,25.90
2023-03-23T19:32:53.739Z,25.60
2023-03-23T19:35:23.051Z,25.70
2023-03-23T19:37:52.531Z,25.10
2023-03-23T19:40:37.518Z,26.00
2023-03-23T19:43:10.974Z,26.10
2023-03-23T19:45:41.485Z,26.10
2023-03-23T19:48:10.893Z,26.50
2023-03-23T19:50:40.959Z,27.60
2023-03-23T19:53:10.452Z,26.00
2023-03-23T19:55:39.781Z,26.20
2023-03-23T19:58:10.405Z,24.90
2023-03-23T20:00:40.552Z,24.50
2023-03-23T20:03:09.735Z,25.00
2023-03-23T20:05:40.772Z,24.60
2023-03-23T20:08:10.756Z,25.10
2023-03-23T20:10:40.764Z,24.20
2023-03-23T20:13:12.067Z,24.40
2023-03-23T20:15:41.718Z,24.80
2023-03-23T20:18:14.320Z,24.80
2023-03-23T20:20:45.794Z,24.20
2023-03-23T20:23:15.886Z,25.30
2023-03-23T20:25:46.445Z,25.00
2023-03-23T20:28:16.775Z,25.00
2023-03-23T20:30:46.690Z,26.50
2023-03-23T20:33:36.920Z,24.90
2023-03-23T20:36:09.306Z,26.10
2023-03-23T20:38:41.372Z,25.80
2023-03-23T20:41:11.750Z,26.40
2023-03-23T20:43:42.627Z,25.50
2023-03-23T20:46:12.642Z,26.80
2023-03-23T20:48:42.224Z,25.20
2023-03-23T20:51:11.528Z,26.90
2023-03-23T20:53:41.302Z,25.20
2023-03-23T20:56:10.296Z,25.90
2023-03-23T20:58:39.616Z,23.50
2023-03-23T21:01:10.377Z,25.00
2023-03-23T21:03:43.260Z,24.80
2023-03-23T21:06:12.324Z,23.10
2023-03-23T21:08:41.707Z,24.10
2023-03-23T21:11:17.659Z,23.30
2023-03-23T21:13:47.862Z,22.80
2023-03-23T21:16:18.886Z,21.70
2023-03-23T21:18:48.732Z,22.80
2023-03-23T21:21:18.932Z,23.80
2023-03-23T21:23:51.983Z,23.20
2023-03-23T21:26:23.663Z,22.80
2023-03-23T21:28:53.684Z,22.60
2023-03-23T21:31:26.200Z,22.90
2023-03-23T21:33:55.784Z,22.80
2023-03-23T21:36:26.260Z,23.80
2023-03-23T21:38:56.498Z,23.90
2023-03-23T21:41:29.467Z,24.00
2023-03-23T21:44:11.503Z,23.30
2023-03-23T21:46:42.664Z,23.40
2023-03-23T21:49:14.190Z,20.90
2023-03-23T21:51:43.991Z,23.70
2023-03-23T21:54:13.087Z,23.70
2023-03-23T21:56:42.626Z,24.60
2023-03-23T21:59:12.060Z,24.40
2023-03-23T22:01:41.273Z,25.10
2023-03-23T22:04:11.255Z,24.50
2023-03-23T22:06:41.835Z,24.40
2023-03-23T22:09:12.024Z,24.50
2023-03-23T22:11:42.743Z,22.70
2023-03-23T22:14:12.199Z,23.90
2023-03-23T22:16:41.695Z,24.80
2023-03-23T22:19:11.227Z,25.80
2023-03-23T22:21:40.501Z,24.20
2023-03-23T22:24:10.037Z,23.30
2023-03-23T22:26:39.220Z,24.80
2023-03-23T22:29:10.664Z,25.10
2023-03-23T22:31:40.433Z,24.20
2023-03-23T22:34:10.264Z,22.30
2023-03-23T22:36:40.705Z,22.90
2023-03-23T22:39:10.102Z,24.20
2023-03-23T22:41:41.010Z,24.20
2023-03-23T22:44:13.244Z,24.30
2023-03-23T22:46:42.651Z,25.20
2023-03-23T22:49:12.103Z,25.00
2023-03-23T22:51:41.403Z,25.00
2023-03-23T22:54:11.722Z,22.80
2023-03-23T22:56:40.941Z,24.30
2023-03-23T22:59:11.716Z,24.60
2023-03-23T23:01:41.016Z,23.70
2023-03-23T23:04:10.938Z,24.20
2023-03-23T23:06:40.328Z,22.60
2023-03-23T23:09:10.356Z,22.40
2023-03-23T23:11:41.941Z,23.80
2023-03-23T23:14:11.367Z,22.80
2023-03-23T23:16:40.673Z,22.30
2023-03-23T23:19:10.062Z,22.00
2023-03-23T23:21:40.802Z,22.40
2023-03-23T23:24:10.219Z,21.40
2023-03-23T23:26:39.746Z,22.00
2023-03-23T23:29:09.736Z,21.40
2023-03-23T23:31:39.140Z,21.30
2023-03-23T23:34:12.045Z,21.30
2023-03-23T23:36:41.633Z,21.40
2023-03-23T23:39:11.659Z,22.40
2023-03-23T23:41:41.419Z,22.30
2023-03-23T23:44:10.921Z,21.80
2023-03-23T23:46:40.682Z,21.80
2023-03-23T23:49:10.299Z,24.90
2023-03-23T23:51:40.762Z,24.40
2023-03-23T23:54:10.275Z,22.70
2023-03-23T23:56:41.169Z,22.20
2023-03-23T23:59:10.532Z,23.50
